Time;durP1;ratioP1;P1;durP2;ratioP2;P2;SDS_P1;SDS_P2;PMS_P1;PMS_P2;Temp;Humidity;BMP_temperature;BMP_pressure;BME280_temperature;BME280_humidity;BME280_pressure;Samples;Min_cycle;Max_cycle;Signal;HPM_P1;HPM_P2
2022/12/23 00:02:23;;;;;;;27.02;18.80;;;14.90;83.10;;;;;;4207886;28;20051;-61
2022/12/23 00:05:06;;;;;;;27.02;17.77;;;15.00;83.10;;;;;;4202223;28;20051;-62
2022/12/23 00:07:47;;;;;;;27.23;19.70;;;15.00;83.10;;;;;;4206416;28;20067;-61
2022/12/23 00:10:28;;;;;;;28.37;20.23;;;15.00;83.90;;;;;;4207605;28;20058;-60
2022/12/23 00:16:11;;;;;;;27.10;19.60;;;14.90;83.00;;;;;;4208890;28;20422;-62
2022/12/23 00:18:53;;;;;;;30.42;20.98;;;14.90;83.10;;;;;;4210626;28;20450;-61
2022/12/23 00:21:35;;;;;;;31.63;20.73;;;14.90;83.10;;;;;;4210563;28;20105;-61
2022/12/23 00:24:16;;;;;;;27.27;19.73;;;14.90;83.10;;;;;;4210405;28;20047;-60
2022/12/23 00:26:57;;;;;;;29.70;21.38;;;14.90;83.20;;;;;;4210507;28;20556;-61
2022/12/23 00:29:38;;;;;;;33.42;21.80;;;14.90;83.30;;;;;;4209795;28;20055;-62
2022/12/23 00:32:19;;;;;;;34.43;22.33;;;14.90;83.40;;;;;;4199571;28;20052;-60
2022/12/23 00:35:00;;;;;;;34.53;22.25;;;14.90;83.50;;;;;;4192391;28;20051;-62
2022/12/23 00:37:42;;;;;;;35.92;22.98;;;14.90;83.70;;;;;;4200917;28;20047;-61
2022/12/23 00:43:21;;;;;;;34.75;21.98;;;14.80;83.40;;;;;;4208651;28;20051;-61
2022/12/23 00:46:02;;;;;;;30.35;20.27;;;14.80;83.60;;;;;;4210704;28;20520;-61
2022/12/23 00:51:41;;;;;;;34.08;22.17;;;14.80;83.60;;;;;;4210104;28;20047;-61
2022/12/23 00:54:24;;;;;;;32.45;21.92;;;14.90;83.70;;;;;;4193226;28;20143;-61
2022/12/23 00:57:06;;;;;;;32.55;21.75;;;14.80;83.60;;;;;;4200984;28;20055;-61
2022/12/23 00:59:47;;;;;;;29.77;19.90;;;14.80;83.50;;;;;;4209638;28;20050;-61
2022/12/23 01:05:37;;;;;;;33.30;21.48;;;14.80;83.60;;;;;;4197830;28;20063;-60
2022/12/23 01:08:18;;;;;;;34.25;23.20;;;14.80;83.70;;;;;;4210170;28;20478;-61
2022/12/23 01:11:05;;;;;;;30.77;21.15;;;14.80;83.70;;;;;;4209179;28;20051;-60
2022/12/23 01:13:45;;;;;;;31.77;21.52;;;14.80;83.60;;;;;;4205651;28;20818;-61
2022/12/23 01:16:26;;;;;;;33.15;23.25;;;14.80;83.80;;;;;;4193697;28;20079;-61
2022/12/23 01:19:08;;;;;;;32.90;21.92;;;14.80;83.90;;;;;;4210115;28;20165;-61
2022/12/23 01:21:49;;;;;;;33.47;21.40;;;14.80;83.90;;;;;;4210282;28;20109;-61
2022/12/23 01:24:30;;;;;;;33.33;21.08;;;14.80;84.20;;;;;;4204940;28;20047;-60
2022/12/23 01:27:13;;;;;;;32.42;21.40;;;14.80;84.10;;;;;;4210253;28;20051;-60
2022/12/23 01:29:53;;;;;;;34.08;22.05;;;14.70;84.00;;;;;;4210404;28;20055;-61
2022/12/23 01:32:34;;;;;;;38.30;23.08;;;14.70;84.00;;;;;;4209938;28;20185;-61
2022/12/23 01:35:15;;;;;;;32.33;20.75;;;14.70;84.10;;;;;;4209679;28;20054;-61
2022/12/23 01:37:56;;;;;;;34.25;21.95;;;14.70;84.10;;;;;;4194131;28;20089;-60
2022/12/23 01:40:41;;;;;;;33.33;22.40;;;14.70;84.10;;;;;;4182584;28;20107;-61
2022/12/23 01:43:23;;;;;;;33.65;22.45;;;14.70;84.20;;;;;;4209162;28;20406;-60
2022/12/23 01:46:03;;;;;;;;;;;14.70;84.10;;;;;;4209549;28;20047;-61
2022/12/23 01:48:49;;;;;;;37.38;22.23;;;14.70;84.20;;;;;;4206492;28;19931;-61
2022/12/23 01:51:30;;;;;;;33.80;22.70;;;14.70;84.70;;;;;;4208983;28;20132;-61
2022/12/23 01:54:11;;;;;;;36.05;22.42;;;14.70;84.50;;;;;;4191491;28;20051;-60
2022/12/23 01:56:52;;;;;;;33.70;21.90;;;14.70;84.50;;;;;;4192813;28;20068;-60
2022/12/23 02:05:38;;;;;;;33.47;22.05;;;14.90;84.70;;;;;;4202838;28;20462;-61
2022/12/23 02:11:39;;;;;;;31.65;21.60;;;15.10;84.30;;;;;;4209187;28;20051;-60
2022/12/23 02:17:32;;;;;;;31.25;20.67;;;15.10;83.80;;;;;;4174630;28;20047;-61
2022/12/23 02:20:37;;;;;;;32.78;21.58;;;15.20;83.80;;;;;;4198798;28;20054;-61
2022/12/23 02:24:00;;;;;;;34.53;22.27;;;15.20;83.40;;;;;;4191582;28;20059;-60
2022/12/23 02:27:13;;;;;;;34.65;21.25;;;15.20;83.30;;;;;;4192002;28;20051;-61
2022/12/23 02:30:24;;;;;;;32.97;21.05;;;15.20;83.20;;;;;;4208946;28;20407;-60
2022/12/23 02:33:31;;;;;;;33.17;20.95;;;15.20;83.20;;;;;;4208349;28;20063;-60
2022/12/23 02:36:23;;;;;;;34.53;22.15;;;15.20;83.10;;;;;;4208841;28;20159;-61
2022/12/23 02:39:08;;;;;;;30.40;20.65;;;15.20;83.30;;;;;;4208180;28;20113;-61
2022/12/23 02:41:57;;;;;;;33.38;21.90;;;15.20;84.50;;;;;;4197093;28;20186;-61
2022/12/23 02:44:44;;;;;;;35.40;22.85;;;15.20;83.70;;;;;;4208845;28;20188;-59
2022/12/23 02:47:28;;;;;;;33.25;21.55;;;15.20;84.40;;;;;;4190834;28;20052;-61
2022/12/23 02:50:17;;;;;;;33.35;21.67;;;15.30;83.40;;;;;;4196160;28;20593;-60
2022/12/23 02:53:06;;;;;;;39.75;23.42;;;15.30;83.20;;;;;;4206897;28;20090;-61
2022/12/23 02:55:49;;;;;;;35.90;22.30;;;15.40;83.20;;;;;;4208196;28;20105;-60
2022/12/23 02:58:35;;;;;;;38.35;23.00;;;15.40;83.10;;;;;;4208196;28;20059;-60
2022/12/23 03:01:17;;;;;;;36.03;22.92;;;15.40;83.10;;;;;;4194058;28;20402;-60
2022/12/23 03:03:59;;;;;;;35.90;21.65;;;15.40;83.00;;;;;;4208747;28;20051;-60
2022/12/23 03:06:42;;;;;;;;;;;15.50;82.90;;;;;;4209167;28;20067;-60
2022/12/23 03:09:31;;;;;;;39.63;23.80;;;15.50;82.80;;;;;;4208607;28;19927;-61
2022/12/23 03:12:19;;;;;;;39.03;23.30;;;15.50;82.80;;;;;;4208534;28;20178;-61
2022/12/23 03:15:17;;;;;;;36.08;22.75;;;15.50;82.70;;;;;;4208641;28;20825;-60
2022/12/23 03:18:04;;;;;;;39.67;24.00;;;15.60;82.40;;;;;;4208076;28;20051;-60
2022/12/23 03:20:52;;;;;;;33.13;22.05;;;15.60;82.40;;;;;;4208325;28;20047;-61
2022/12/23 03:23:39;;;;;;;38.17;23.10;;;15.60;82.20;;;;;;4208333;28;20748;-60
2022/12/23 03:26:27;;;;;;;34.97;22.20;;;15.60;82.20;;;;;;4208890;28;20552;-60
2022/12/23 03:29:15;;;;;;;34.85;21.52;;;15.60;82.20;;;;;;4208580;28;20058;-61
2022/12/23 03:31:59;;;;;;;33.45;21.65;;;15.60;83.20;;;;;;4208130;28;20821;-60
2022/12/23 03:34:43;;;;;;;35.30;21.20;;;15.60;82.30;;;;;;4206898;28;20059;-60
2022/12/23 03:37:27;;;;;;;38.55;23.50;;;15.60;82.10;;;;;;4208307;28;20059;-60
2022/12/23 03:40:16;;;;;;;36.42;22.02;;;15.70;82.00;;;;;;4208373;28;20540;-61
2022/12/23 03:43:01;;;;;;;35.95;21.45;;;15.60;81.90;;;;;;4190594;28;20121;-60
2022/12/23 03:45:45;;;;;;;32.13;21.38;;;15.60;82.00;;;;;;4191631;28;20051;-60
2022/12/23 03:48:30;;;;;;;33.28;21.63;;;15.60;82.00;;;;;;4191451;28;20125;-60
2022/12/23 03:51:17;;;;;;;34.22;21.27;;;15.60;81.90;;;;;;4199695;28;20463;-60
2022/12/23 03:54:01;;;;;;;34.78;21.88;;;15.60;82.10;;;;;;4211276;28;20059;-60
2022/12/23 03:56:47;;;;;;;33.58;21.05;;;15.60;82.10;;;;;;4211604;28;20265;-60
2022/12/23 03:59:31;;;;;;;33.47;20.92;;;15.50;82.00;;;;;;4211305;28;20062;-59
2022/12/23 04:02:18;;;;;;;35.33;21.05;;;15.50;82.10;;;;;;4210625;28;20149;-59
2022/12/23 04:05:21;;;;;;;32.15;21.23;;;15.50;82.10;;;;;;4210628;28;20128;-59
2022/12/23 04:08:07;;;;;;;33.40;20.88;;;15.50;82.20;;;;;;4210674;28;20141;-60
2022/12/23 04:10:49;;;;;;;29.60;20.02;;;15.50;82.60;;;;;;4210700;28;20497;-60
2022/12/23 04:13:31;;;;;;;30.08;19.92;;;15.50;82.40;;;;;;4211242;28;20058;-60
2022/12/23 04:16:12;;;;;;;34.60;20.65;;;15.60;82.20;;;;;;4193710;28;20051;-60
2022/12/23 04:18:53;;;;;;;35.10;21.88;;;15.60;82.20;;;;;;4194296;28;20548;-59
2022/12/23 04:21:34;;;;;;;33.75;21.00;;;15.60;82.20;;;;;;4192063;28;20064;-59
2022/12/23 04:24:15;;;;;;;30.63;19.40;;;15.60;82.20;;;;;;4209818;28;20051;-59
2022/12/23 04:26:56;;;;;;;36.75;21.35;;;15.60;82.20;;;;;;4209799;28;20055;-60
2022/12/23 04:29:38;;;;;;;29.10;19.27;;;15.60;82.20;;;;;;4210917;28;20059;-59
2022/12/23 04:32:19;;;;;;;31.27;19.52;;;15.60;82.10;;;;;;4193122;28;20186;-59
2022/12/23 04:35:00;;;;;;;32.17;19.27;;;15.70;82.00;;;;;;4206805;28;20047;-59
2022/12/23 04:37:41;;;;;;;35.28;19.75;;;15.70;82.10;;;;;;4210754;28;20490;-60
2022/12/23 04:40:22;;;;;;;35.50;20.15;;;15.70;82.00;;;;;;4210161;28;20130;-60
2022/12/23 04:43:03;;;;;;;34.40;19.05;;;15.70;81.90;;;;;;4210719;28;20222;-60
2022/12/23 04:45:49;;;;;;;28.75;18.08;;;15.70;81.80;;;;;;4208969;28;20510;-59
2022/12/23 04:48:30;;;;;;;33.08;19.38;;;15.70;81.60;;;;;;4210551;28;20137;-60
2022/12/23 04:51:11;;;;;;;31.00;18.35;;;15.70;81.60;;;;;;4188583;28;20408;-60
2022/12/23 04:53:52;;;;;;;28.65;17.67;;;15.70;81.70;;;;;;4210552;28;20797;-60
2022/12/23 04:56:33;;;;;;;29.35;18.20;;;15.80;81.60;;;;;;4210494;28;20063;-60
2022/12/23 04:59:14;;;;;;;30.73;17.48;;;15.80;81.50;;;;;;4210611;28;20141;-60
2022/12/23 05:01:56;;;;;;;27.10;16.75;;;15.80;81.40;;;;;;4193319;28;20399;-60
2022/12/23 05:04:37;;;;;;;28.90;17.00;;;15.80;81.30;;;;;;4200384;28;20051;-59
2022/12/23 05:07:18;;;;;;;24.95;16.05;;;15.80;81.30;;;;;;4209547;28;20098;-59
2022/12/23 05:10:00;;;;;;;25.70;17.13;;;15.80;81.30;;;;;;4210134;28;20055;-60
2022/12/23 05:12:41;;;;;;;28.02;17.00;;;15.70;81.40;;;;;;4209978;28;20086;-60
2022/12/23 05:15:22;;;;;;;23.73;16.10;;;15.70;81.50;;;;;;4209982;28;20055;-59
2022/12/23 05:18:05;;;;;;;26.75;17.20;;;15.70;81.60;;;;;;4209545;28;20054;-59
2022/12/23 05:20:46;;;;;;;23.45;15.30;;;15.60;81.70;;;;;;4210011;28;20383;-60
2022/12/23 05:23:27;;;;;;;26.90;15.70;;;15.60;82.00;;;;;;4210422;28;20058;-60
2022/12/23 05:26:08;;;;;;;23.10;14.75;;;15.70;82.00;;;;;;4209699;28;20058;-60
2022/12/23 05:28:50;;;;;;;22.92;15.70;;;15.70;82.00;;;;;;4210030;28;20046;-60
2022/12/23 05:31:30;;;;;;;23.77;13.98;;;15.70;81.80;;;;;;4208372;28;20055;-59
2022/12/23 05:34:13;;;;;;;24.27;15.88;;;15.70;81.80;;;;;;4209411;28;20108;-60
2022/12/23 05:36:53;;;;;;;32.60;17.73;;;15.70;81.70;;;;;;4209751;28;20059;-59
2022/12/23 05:39:34;;;;;;;32.45;16.60;;;15.70;81.80;;;;;;4209350;28;20063;-58
2022/12/23 05:42:18;;;;;;;28.67;16.88;;;15.70;81.80;;;;;;4209755;28;20050;-59
2022/12/23 05:44:59;;;;;;;26.55;16.73;;;15.80;81.80;;;;;;4209622;28;20055;-59
2022/12/23 05:47:40;;;;;;;25.45;16.58;;;15.80;81.60;;;;;;4195482;28;20104;-59
2022/12/23 05:50:22;;;;;;;23.05;15.00;;;15.80;81.50;;;;;;4208649;28;20494;-59
2022/12/23 05:53:04;;;;;;;26.80;16.77;;;15.80;81.50;;;;;;4209245;28;20714;-60
2022/12/23 05:55:45;;;;;;;30.67;17.83;;;15.80;81.70;;;;;;4209662;28;20414;-59
2022/12/23 05:58:26;;;;;;;27.70;17.25;;;15.80;81.70;;;;;;4209720;28;20178;-59
2022/12/23 06:01:07;;;;;;;24.30;15.65;;;15.80;81.60;;;;;;4191949;28;20170;-59
2022/12/23 06:03:48;;;;;;;27.30;16.30;;;15.80;81.50;;;;;;4209201;28;20394;-59
2022/12/23 06:06:30;;;;;;;26.70;16.30;;;15.80;81.50;;;;;;4208757;28;20047;-59
2022/12/23 06:09:11;;;;;;;28.50;17.25;;;15.80;81.90;;;;;;4194888;28;20059;-60
2022/12/23 06:11:51;;;;;;;27.30;16.48;;;15.80;81.70;;;;;;4209023;28;20075;-59
2022/12/23 06:14:32;;;;;;;26.02;16.30;;;15.80;82.70;;;;;;4208379;28;20501;-59
2022/12/23 06:17:14;;;;;;;26.55;16.00;;;15.80;81.80;;;;;;4191640;28;20052;-59
2022/12/23 06:19:54;;;;;;;25.45;16.65;;;15.80;82.60;;;;;;4190880;28;20052;-59
2022/12/23 06:22:37;;;;;;;26.10;17.30;;;15.80;81.70;;;;;;4192211;28;20068;-60
2022/12/23 06:25:18;;;;;;;23.73;15.23;;;15.80;81.60;;;;;;4194578;28;20054;-59
2022/12/23 06:27:58;;;;;;;26.83;16.25;;;15.90;81.60;;;;;;4208950;28;20383;-59
2022/12/23 06:30:39;;;;;;;27.25;17.05;;;15.90;81.20;;;;;;4208813;28;20055;-59
2022/12/23 06:33:20;;;;;;;24.95;15.98;;;15.90;81.20;;;;;;4193154;28;20063;-59
2022/12/23 06:36:02;;;;;;;26.45;16.50;;;15.90;81.10;;;;;;4196575;28;20074;-59
2022/12/23 06:38:44;;;;;;;24.80;15.93;;;16.00;82.00;;;;;;4208719;28;20047;-59
2022/12/23 06:41:25;;;;;;;28.85;16.08;;;16.00;80.80;;;;;;4208032;28;20157;-59
2022/12/23 06:44:06;;;;;;;33.78;15.38;;;16.00;80.80;;;;;;4207980;28;20399;-60
2022/12/23 06:46:47;;;;;;;98.15;16.27;;;16.00;80.90;;;;;;4191658;28;20229;-60
2022/12/23 06:49:28;;;;;;;99.63;16.58;;;16.00;81.10;;;;;;4208706;28;20410;-59
2022/12/23 06:52:09;;;;;;;125.22;15.77;;;16.00;80.90;;;;;;4208438;28;20583;-59
2022/12/23 06:54:51;;;;;;;137.82;15.80;;;16.00;80.90;;;;;;4191156;28;20407;-59
2022/12/23 06:57:32;;;;;;;107.63;13.93;;;16.00;80.80;;;;;;4181516;28;20074;-59
2022/12/23 07:00:14;;;;;;;176.05;16.90;;;16.00;80.90;;;;;;4208550;28;20051;-59
2022/12/23 07:02:55;;;;;;;104.50;14.75;;;15.90;81.00;;;;;;4206196;28;20190;-60
2022/12/23 07:05:36;;;;;;;152.23;17.23;;;15.90;81.20;;;;;;4202178;28;20114;-60
2022/12/23 07:08:18;;;;;;;124.78;17.00;;;15.80;81.30;;;;;;4195416;28;20514;-60
2022/12/23 07:11:02;;;;;;;114.30;15.27;;;15.90;82.50;;;;;;4207966;28;20506;-60
2022/12/23 07:13:43;;;;;;;96.05;13.98;;;15.80;81.70;;;;;;4207530;28;20055;-60
2022/12/23 07:16:24;;;;;;;43.17;13.60;;;15.80;81.90;;;;;;4203312;28;20501;-61
2022/12/23 07:19:05;;;;;;;42.13;14.10;;;15.90;82.10;;;;;;4191437;28;20125;-60
2022/12/23 07:21:46;;;;;;;31.23;14.00;;;15.90;81.70;;;;;;4198460;28;20046;-60
2022/12/23 07:24:27;;;;;;;28.15;13.43;;;16.00;81.50;;;;;;4208341;28;20454;-59
2022/12/23 07:27:09;;;;;;;27.75;14.43;;;16.00;81.20;;;;;;4211921;28;20490;-59
2022/12/23 07:29:50;;;;;;;22.23;12.93;;;16.00;80.90;;;;;;4210364;28;20430;-60
2022/12/23 07:32:31;;;;;;;22.60;13.93;;;16.00;80.80;;;;;;4194620;28;20063;-60
2022/12/23 07:35:12;;;;;;;20.52;13.80;;;16.00;80.90;;;;;;4206831;28;20129;-60
2022/12/23 07:37:54;;;;;;;20.65;13.32;;;15.90;81.00;;;;;;4211336;28;20501;-59
2022/12/23 07:40:35;;;;;;;21.42;14.32;;;15.90;81.30;;;;;;4209543;28;20157;-60
2022/12/23 07:43:17;;;;;;;19.75;13.55;;;15.80;81.30;;;;;;4211623;28;20059;-60
2022/12/23 07:45:58;;;;;;;19.05;13.27;;;15.80;82.20;;;;;;4207679;28;20555;-60
2022/12/23 07:48:41;;;;;;;23.45;13.90;;;15.80;81.50;;;;;;4211332;28;20055;-61
2022/12/23 07:51:22;;;;;;;;;;;15.70;81.40;;;;;;4211889;28;20190;-60
2022/12/23 07:54:02;;;;;;;20.05;13.02;;;15.70;81.40;;;;;;4194755;28;20032;-60
2022/12/23 07:56:44;;;;;;;21.40;13.35;;;15.60;81.90;;;;;;4194808;28;20040;-60
2022/12/23 07:59:26;;;;;;;26.60;14.02;;;15.60;82.10;;;;;;4194901;28;20189;-60
2022/12/23 08:02:08;;;;;;;20.02;12.75;;;15.50;81.90;;;;;;4204406;28;20193;-60
2022/12/23 08:04:49;;;;;;;22.75;12.75;;;15.50;82.10;;;;;;4208833;28;20070;-60
2022/12/23 08:07:30;;;;;;;19.85;12.35;;;15.40;82.20;;;;;;4216340;27;20081;-60
2022/12/23 08:10:12;;;;;;;18.77;13.05;;;15.40;82.60;;;;;;4227013;27;20107;-60
2022/12/23 08:12:52;;;;;;;20.90;13.32;;;15.50;83.60;;;;;;4212233;28;20051;-59
2022/12/23 08:15:34;;;;;;;20.60;13.48;;;15.50;82.60;;;;;;4211163;28;20406;-59
2022/12/23 08:18:15;;;;;;;18.98;12.15;;;15.60;82.20;;;;;;4210695;28;20087;-58
2022/12/23 08:20:58;;;;;;;21.60;12.93;;;15.60;82.00;;;;;;4210602;28;20051;-59
2022/12/23 08:23:40;;;;;;;22.00;13.40;;;15.60;81.80;;;;;;4195595;28;20605;-59
2022/12/23 08:26:23;;;;;;;20.48;13.00;;;15.70;81.70;;;;;;4202790;28;20150;-58
2022/12/23 08:29:03;;;;;;;19.88;13.32;;;15.60;81.50;;;;;;4208959;28;20134;-59
2022/12/23 08:31:46;;;;;;;20.35;12.73;;;15.60;81.50;;;;;;4190921;28;20510;-59
2022/12/23 08:34:27;;;;;;;19.08;12.65;;;15.60;81.60;;;;;;4210922;28;20063;-59
2022/12/23 08:37:08;;;;;;;19.15;12.45;;;15.60;81.60;;;;;;4192125;28;20125;-59
2022/12/23 08:39:49;;;;;;;20.63;13.45;;;15.50;81.70;;;;;;4214159;27;20197;-59
2022/12/23 08:42:30;;;;;;;21.30;12.90;;;15.60;81.90;;;;;;4210131;28;20261;-59
2022/12/23 08:45:11;;;;;;;20.48;13.73;;;15.60;81.80;;;;;;4210326;28;20105;-59
2022/12/23 08:47:53;;;;;;;19.15;12.43;;;15.60;81.50;;;;;;4193804;28;20109;-58
2022/12/23 08:50:38;;;;;;;29.10;14.40;;;15.70;81.50;;;;;;4209016;28;20518;-60
2022/12/23 08:53:19;;;;;;;26.38;13.93;;;15.60;81.50;;;;;;4209831;28;20114;-60
2022/12/23 08:56:03;;;;;;;38.45;15.95;;;15.70;81.60;;;;;;4193813;28;20112;-60
2022/12/23 08:58:46;;;;;;;23.80;14.07;;;15.60;81.50;;;;;;4193016;28;20202;-59
2022/12/23 09:01:28;;;;;;;19.63;12.25;;;15.60;81.50;;;;;;4194057;28;20121;-59
2022/12/23 09:04:11;;;;;;;19.23;12.55;;;15.60;81.50;;;;;;4197701;28;20059;-60
2022/12/23 09:06:51;;;;;;;19.65;12.70;;;15.60;81.60;;;;;;4206663;28;20055;-59
2022/12/23 09:09:33;;;;;;;18.15;11.82;;;15.50;81.40;;;;;;4207676;28;20100;-59
2022/12/23 09:12:13;;;;;;;16.90;12.10;;;15.50;81.40;;;;;;4207852;28;20156;-59
2022/12/23 09:14:54;;;;;;;19.92;13.13;;;15.50;81.40;;;;;;4193963;28;20067;-60
2022/12/23 09:17:35;;;;;;;18.15;12.52;;;15.40;81.40;;;;;;4207772;28;20063;-61
2022/12/23 09:20:18;;;;;;;20.23;12.68;;;15.40;81.80;;;;;;4207384;28;20043;-61
2022/12/23 09:23:00;;;;;;;18.15;11.60;;;15.30;82.10;;;;;;4207469;28;20055;-60
2022/12/23 09:25:41;;;;;;;20.50;12.32;;;15.30;82.10;;;;;;4206788;28;20059;-61
2022/12/23 09:28:23;;;;;;;19.30;11.93;;;15.30;82.50;;;;;;4206600;28;20524;-60
2022/12/23 09:31:07;;;;;;;34.67;12.35;;;15.30;82.50;;;;;;4207595;28;20284;-60
2022/12/23 09:33:50;;;;;;;27.73;12.20;;;15.40;82.40;;;;;;4207133;28;20109;-58
2022/12/23 09:36:32;;;;;;;39.08;12.63;;;15.40;82.30;;;;;;4206928;28;20406;-60
2022/12/23 09:39:13;;;;;;;26.48;11.48;;;15.50;82.20;;;;;;4207262;28;20112;-60
2022/12/23 09:42:12;;;;;;;22.20;10.90;;;15.50;82.30;;;;;;4206569;28;20043;-60
2022/12/23 09:45:08;;;;;;;17.40;11.55;;;15.50;81.90;;;;;;4205713;28;20059;-60
2022/12/23 09:47:51;;;;;;;15.85;11.05;;;15.50;81.90;;;;;;4204928;28;20190;-60
2022/12/23 09:50:34;;;;;;;25.13;11.63;;;15.50;81.90;;;;;;4206753;27;20150;-60
2022/12/23 09:53:19;;;;;;;25.75;11.60;;;15.60;81.80;;;;;;4207106;28;20386;-60
2022/12/23 09:56:08;;;;;;;22.83;11.57;;;15.60;81.60;;;;;;4206769;28;20051;-60
2022/12/23 09:58:58;;;;;;;26.48;10.00;;;15.60;81.60;;;;;;4206787;27;20129;-60
2022/12/23 10:01:46;;;;;;;54.58;10.30;;;15.60;81.60;;;;;;4206984;28;20133;-59
2022/12/23 10:04:44;;;;;;;62.83;11.32;;;15.50;81.50;;;;;;4205537;28;20051;-59
2022/12/23 10:07:37;;;;;;;73.07;10.30;;;15.50;81.30;;;;;;4188401;28;20337;-59
2022/12/23 10:10:32;;;;;;;60.83;10.48;;;15.50;81.70;;;;;;4206646;27;20445;-59
2022/12/23 10:13:25;;;;;;;47.17;9.73;;;15.50;81.80;;;;;;4205518;28;20083;-59
2022/12/23 10:16:12;;;;;;;59.70;9.75;;;15.40;81.80;;;;;;4206559;28;20185;-60
2022/12/23 10:18:59;;;;;;;40.42;10.05;;;15.40;82.20;;;;;;4206642;28;20058;-60
2022/12/23 10:21:44;;;;;;;47.50;10.25;;;15.40;82.40;;;;;;4206527;28;20186;-60
2022/12/23 10:24:38;;;;;;;42.75;9.85;;;15.30;82.50;;;;;;4206376;28;20090;-60
2022/12/23 10:27:25;;;;;;;47.17;10.82;;;15.30;83.50;;;;;;4206105;28;20103;-60
2022/12/23 10:30:11;;;;;;;101.75;11.73;;;15.30;83.70;;;;;;4189450;28;20932;-60
2022/12/23 10:33:19;;;;;;;52.95;10.68;;;15.20;82.80;;;;;;4205526;28;20066;-59
2022/12/23 10:36:07;;;;;;;65.50;10.35;;;15.20;82.90;;;;;;4206350;28;20112;-59
2022/12/23 10:38:54;;;;;;;86.18;11.32;;;15.20;83.10;;;;;;4205955;28;20055;-60
2022/12/23 10:41:43;;;;;;;39.55;9.75;;;15.10;83.10;;;;;;4205932;28;20074;-59
2022/12/23 10:44:44;;;;;;;56.17;10.13;;;15.10;83.20;;;;;;4205870;28;20059;-59
2022/12/23 10:47:35;;;;;;;49.28;9.15;;;15.10;83.10;;;;;;4205306;28;20047;-59
2022/12/23 10:50:34;;;;;;;36.10;8.35;;;15.10;83.40;;;;;;4205842;28;22241;-58
2022/12/23 10:53:22;;;;;;;36.15;9.07;;;15.00;83.40;;;;;;4205780;28;20124;-59
2022/12/23 10:56:05;;;;;;;50.58;9.52;;;15.00;83.50;;;;;;4205633;28;20525;-59
2022/12/23 10:58:50;;;;;;;51.83;9.20;;;15.00;83.60;;;;;;4205697;28;20046;-59
2022/12/23 11:01:32;;;;;;;28.27;8.30;;;15.00;83.60;;;;;;4188104;28;20087;-59
2022/12/23 11:04:16;;;;;;;25.75;9.10;;;15.00;83.60;;;;;;4205973;28;20050;-60
2022/12/23 11:06:58;;;;;;;24.88;9.00;;;14.90;83.60;;;;;;4205014;28;20067;-59
2022/12/23 11:10:01;;;;;;;15.52;8.23;;;14.80;83.60;;;;;;4205837;28;20059;-59
2022/12/23 11:12:46;;;;;;;16.30;8.60;;;14.90;84.00;;;;;;4205548;28;24294;-60
2022/12/23 11:15:31;;;;;;;17.17;8.20;;;14.80;84.10;;;;;;4205610;28;20194;-59
2022/12/23 11:18:19;;;;;;;16.73;8.52;;;14.70;84.10;;;;;;4206004;28;20062;-59
2022/12/23 11:21:05;;;;;;;16.23;8.80;;;14.70;84.60;;;;;;4204407;28;20420;-59
2022/12/23 11:23:46;;;;;;;21.00;9.90;;;14.80;85.20;;;;;;4206222;28;20055;-60
2022/12/23 11:26:27;;;;;;;14.95;9.95;;;14.90;85.80;;;;;;4205973;28;20059;-59
2022/12/23 11:29:13;;;;;;;22.80;9.82;;;14.90;84.70;;;;;;4205618;28;20129;-59
2022/12/23 11:31:55;;;;;;;28.42;10.35;;;15.00;84.60;;;;;;4205471;28;20047;-59
2022/12/23 11:34:38;;;;;;;19.45;10.27;;;15.00;84.40;;;;;;4205956;28;20112;-59
2022/12/23 11:37:40;;;;;;;13.45;9.65;;;15.10;84.10;;;;;;4205947;28;20065;-60
2022/12/23 11:40:25;;;;;;;17.20;10.65;;;15.10;83.80;;;;;;4190430;28;20526;-60
2022/12/23 11:43:13;;;;;;;14.32;9.95;;;15.10;84.00;;;;;;4188930;28;20121;-60
2022/12/23 11:46:18;;;;;;;17.80;11.07;;;15.10;83.90;;;;;;4205561;28;20501;-60
2022/12/23 11:49:17;;;;;;;13.93;9.98;;;15.10;83.80;;;;;;4205991;28;20102;-60
2022/12/23 11:52:10;;;;;;;12.68;9.30;;;15.10;83.70;;;;;;4204866;28;20519;-58
2022/12/23 11:54:54;;;;;;;16.55;10.32;;;15.10;83.80;;;;;;4204953;28;20532;-60
2022/12/23 11:57:42;;;;;;;17.80;10.30;;;15.10;83.80;;;;;;4205004;28;20059;-60
2022/12/23 12:00:26;;;;;;;14.40;10.23;;;15.10;83.80;;;;;;4204913;28;20378;-59
2022/12/23 12:03:14;;;;;;;15.93;9.38;;;15.20;84.00;;;;;;4205339;28;20509;-58
2022/12/23 12:05:59;;;;;;;14.60;9.50;;;15.20;83.90;;;;;;4205669;28;20838;-60
2022/12/23 12:08:42;;;;;;;12.30;9.65;;;15.30;83.60;;;;;;4203202;28;20059;-61
2022/12/23 12:11:27;;;;;;;15.93;10.10;;;15.40;83.30;;;;;;4205243;28;20059;-60
2022/12/23 12:14:08;;;;;;;17.40;9.45;;;15.40;83.00;;;;;;4207656;28;20124;-60
2022/12/23 12:16:58;;;;;;;12.23;9.35;;;15.40;82.80;;;;;;4208264;28;20474;-59
2022/12/23 12:19:46;;;;;;;15.90;10.45;;;15.40;82.60;;;;;;4206127;28;20050;-59
2022/12/23 12:22:37;;;;;;;19.92;12.00;;;15.40;82.70;;;;;;4207885;28;20071;-59
2022/12/23 12:25:22;;;;;;;18.25;10.50;;;15.40;82.70;;;;;;4207430;28;20128;-60
2022/12/23 12:28:05;;;;;;;15.52;11.40;;;15.40;82.80;;;;;;4208642;28;20074;-59
2022/12/23 12:30:50;;;;;;;15.85;10.35;;;15.40;82.80;;;;;;4208262;28;20051;-60
2022/12/23 12:33:36;;;;;;;18.27;10.23;;;15.30;82.80;;;;;;4207451;28;20074;-59
2022/12/23 12:36:27;;;;;;;17.27;10.35;;;15.30;83.10;;;;;;4207477;28;20069;-60
2022/12/23 12:39:15;;;;;;;19.27;10.95;;;15.30;83.30;;;;;;4208088;28;20051;-63
2022/12/23 12:42:02;;;;;;;16.55;11.30;;;15.30;83.30;;;;;;4206551;28;20070;-61
2022/12/23 12:44:55;;;;;;;16.45;10.82;;;15.30;83.20;;;;;;4206490;28;20880;-62
2022/12/23 12:47:41;;;;;;;19.65;12.35;;;15.30;83.10;;;;;;4207498;28;20059;-61
2022/12/23 12:50:39;;;;;;;24.48;13.95;;;15.30;83.10;;;;;;4206824;28;20157;-60
2022/12/23 12:53:22;;;;;;;23.58;12.00;;;15.30;83.20;;;;;;4207459;28;20063;-61
2022/12/23 12:56:11;;;;;;;21.45;12.88;;;15.30;83.10;;;;;;4207772;28;20624;-61
2022/12/23 12:58:53;;;;;;;22.30;13.25;;;15.30;83.10;;;;;;4204745;28;20505;-61
2022/12/23 13:01:45;;;;;;;20.55;13.18;;;15.30;83.30;;;;;;4207524;28;20136;-61
2022/12/23 13:04:55;;;;;;;21.20;14.05;;;15.20;83.20;;;;;;4207639;28;20144;-61
2022/12/23 13:07:45;;;;;;;21.83;14.63;;;15.20;83.40;;;;;;4207123;28;20105;-62
2022/12/23 13:10:37;;;;;;;23.90;13.63;;;15.20;83.50;;;;;;4208406;28;20054;-61
2022/12/23 13:13:30;;;;;;;24.92;15.00;;;15.20;84.40;;;;;;4207086;28;20398;-61
2022/12/23 13:16:22;;;;;;;21.13;13.18;;;15.10;83.40;;;;;;4207632;28;20125;-61
2022/12/23 13:19:10;;;;;;;21.92;14.35;;;15.10;83.60;;;;;;4206871;28;20063;-62
2022/12/23 13:22:00;;;;;;;24.30;14.93;;;15.00;83.90;;;;;;4207289;28;20047;-62
2022/12/23 13:24:53;;;;;;;24.30;15.93;;;15.00;84.00;;;;;;4207626;28;20406;-62
2022/12/23 13:27:38;;;;;;;23.20;14.60;;;15.00;84.00;;;;;;4205934;28;20509;-61
2022/12/23 13:30:22;;;;;;;24.23;15.27;;;15.00;84.00;;;;;;4207315;28;21038;-61
2022/12/23 13:33:22;;;;;;;21.77;16.05;;;14.90;83.90;;;;;;4206929;28;20181;-61
2022/12/23 13:36:11;;;;;;;26.67;15.25;;;14.90;83.80;;;;;;4207769;28;20071;-62
2022/12/23 13:39:09;;;;;;;25.23;16.08;;;14.90;84.20;;;;;;4205924;28;20051;-61
2022/12/23 13:41:53;;;;;;;27.85;14.95;;;14.80;83.90;;;;;;4206275;28;20407;-60
2022/12/23 13:44:39;;;;;;;24.40;15.65;;;14.80;83.70;;;;;;4205686;28;20138;-60
2022/12/23 13:47:29;;;;;;;26.35;16.35;;;14.80;84.00;;;;;;4207441;28;20063;-61
2022/12/23 13:50:16;;;;;;;29.90;14.98;;;14.80;84.50;;;;;;4206729;28;20062;-60
2022/12/23 13:53:14;;;;;;;21.83;13.68;;;14.70;84.80;;;;;;4206426;28;20121;-60
2022/12/23 13:56:10;;;;;;;20.45;12.45;;;14.70;84.60;;;;;;4206544;28;20054;-60
2022/12/23 13:58:51;;;;;;;17.23;11.65;;;14.60;84.90;;;;;;4206630;28;20054;-60
2022/12/23 14:01:36;;;;;;;19.55;11.45;;;14.70;85.10;;;;;;4206491;28;20509;-61
2022/12/23 14:04:36;;;;;;;19.48;11.15;;;14.60;84.90;;;;;;4207037;28;20982;-61
2022/12/23 14:07:22;;;;;;;15.90;11.23;;;14.60;84.10;;;;;;4206552;28;20067;-61
2022/12/23 14:10:11;;;;;;;16.75;10.73;;;14.50;84.30;;;;;;4206613;28;20058;-61
2022/12/23 14:12:58;;;;;;;15.23;10.82;;;14.50;84.20;;;;;;4206719;28;20122;-61
2022/12/23 14:16:14;;;;;;;17.90;11.00;;;14.50;84.70;;;;;;4217009;28;20066;-61
2022/12/23 14:19:21;;;;;;;20.60;11.73;;;14.40;85.20;;;;;;4193370;28;20051;-61
2022/12/23 14:22:19;;;;;;;22.00;11.32;;;14.40;85.80;;;;;;4206278;28;20588;-61
2022/12/23 14:25:45;;;;;;;18.70;12.45;;;14.40;86.00;;;;;;4206808;28;20055;-61